createdAt,value
2022-10-18T00:01:10.346Z,32.40
2022-10-18T00:03:39.349Z,30.03
2022-10-18T00:06:09.095Z,33.17
2022-10-18T00:08:38.012Z,27.30
2022-10-18T00:11:07.101Z,28.00
2022-10-18T00:13:35.283Z,27.30
2022-10-18T00:16:11.045Z,30.30
2022-10-18T00:18:44.526Z,28.27
2022-10-18T00:21:16.359Z,26.60
2022-10-18T00:23:46.910Z,28.60
2022-10-18T00:26:20.108Z,27.33
2022-10-18T00:28:54.190Z,29.17
2022-10-18T00:31:26.818Z,28.13
2022-10-18T00:33:57.270Z,26.37
2022-10-18T00:36:27.032Z,23.97
2022-10-18T00:38:55.863Z,23.37
2022-10-18T00:41:33.448Z,23.87
2022-10-18T00:44:03.500Z,22.97
2022-10-18T00:46:35.245Z,23.53
2022-10-18T00:49:07.601Z,22.90
2022-10-18T00:51:43.634Z,22.70
2022-10-18T00:54:12.241Z,21.00
2022-10-18T00:56:40.628Z,19.50
2022-10-18T00:59:09.234Z,18.40
2022-10-18T01:01:38.910Z,19.43
2022-10-18T01:04:07.603Z,19.50
2022-10-18T01:06:43.219Z,18.63
2022-10-18T01:09:18.120Z,19.50
2022-10-18T01:12:08.703Z,18.03
2022-10-18T01:14:46.918Z,18.40
2022-10-18T01:17:20.700Z,19.67
2022-10-18T01:20:13.228Z,20.40
2022-10-18T01:22:46.003Z,20.43
2022-10-18T01:25:29.361Z,18.00
2022-10-18T01:28:05.672Z,18.67
2022-10-18T01:30:41.692Z,19.77
2022-10-18T01:33:22.488Z,17.47
2022-10-18T01:35:54.844Z,19.87
2022-10-18T01:38:25.757Z,20.33
2022-10-18T01:40:56.057Z,19.07
2022-10-18T01:43:25.469Z,18.07
2022-10-18T01:45:57.608Z,18.30
2022-10-18T01:48:25.896Z,16.87
2022-10-18T01:50:54.118Z,19.73
2022-10-18T01:53:24.169Z,17.50
2022-10-18T01:56:01.394Z,18.27
2022-10-18T01:58:37.011Z,17.80
2022-10-18T02:01:12.469Z,18.13
2022-10-18T02:03:46.249Z,17.93
2022-10-18T02:06:21.138Z,17.40
2022-10-18T02:08:56.041Z,18.60
2022-10-18T02:11:24.678Z,19.73
2022-10-18T02:13:56.489Z,19.00
2022-10-18T02:16:30.681Z,17.83
2022-10-18T02:19:02.325Z,18.53
2022-10-18T02:21:31.765Z,17.90
2022-10-18T02:24:03.053Z,16.53
2022-10-18T02:26:31.449Z,18.10
2022-10-18T02:28:59.640Z,18.33
2022-10-18T02:31:34.364Z,19.63
2022-10-18T02:34:09.855Z,17.73
2022-10-18T02:36:43.866Z,18.20
2022-10-18T02:39:15.014Z,17.50
2022-10-18T02:41:44.378Z,19.40
2022-10-18T02:44:12.530Z,18.13
2022-10-18T02:46:42.648Z,18.20
2022-10-18T02:49:10.770Z,18.57
2022-10-18T02:51:38.935Z,17.93
2022-10-18T02:54:08.351Z,18.50
2022-10-18T02:56:36.739Z,17.83
2022-10-18T02:59:07.306Z,18.33
2022-10-18T03:01:36.213Z,17.80
2022-10-18T03:04:06.175Z,18.93
2022-10-18T03:06:34.957Z,19.30
2022-10-18T03:09:03.254Z,17.63
2022-10-18T03:11:31.594Z,18.10
2022-10-18T03:13:59.774Z,17.03
2022-10-18T03:16:28.524Z,18.87
2022-10-18T03:18:56.675Z,17.73
2022-10-18T03:21:26.447Z,18.90
2022-10-18T03:23:54.805Z,18.53
2022-10-18T03:26:22.952Z,18.20
2022-10-18T03:28:51.164Z,16.90
2022-10-18T03:31:19.531Z,16.13
2022-10-18T03:33:47.689Z,18.80
2022-10-18T03:36:16.107Z,17.10
2022-10-18T03:38:45.575Z,17.60
2022-10-18T03:41:13.701Z,19.23
2022-10-18T03:43:41.892Z,18.43
2022-10-18T03:46:10.098Z,19.17
2022-10-18T03:48:38.237Z,19.53
2022-10-18T03:51:06.609Z,19.13
2022-10-18T03:53:34.842Z,18.77
2022-10-18T03:56:04.466Z,19.90
2022-10-18T04:01:05.735Z,18.30
2022-10-18T04:03:33.987Z,17.60
2022-10-18T04:06:03.589Z,21.33
2022-10-18T04:08:31.859Z,21.33
2022-10-18T04:10:59.985Z,21.80
2022-10-18T04:13:30.167Z,18.07
2022-10-18T04:15:58.280Z,19.80
2022-10-18T04:18:26.473Z,18.90
2022-10-18T04:20:54.640Z,18.03
2022-10-18T04:23:22.778Z,17.80
2022-10-18T04:25:51.275Z,18.70
2022-10-18T04:28:19.613Z,18.97
2022-10-18T04:30:52.033Z,20.43
2022-10-18T04:33:20.658Z,21.07
2022-10-18T04:35:51.990Z,20.50
2022-10-18T04:38:20.314Z,20.60
2022-10-18T04:40:48.495Z,20.63
2022-10-18T04:43:16.971Z,21.80
2022-10-18T04:45:45.955Z,22.60
2022-10-18T04:48:15.665Z,23.43
2022-10-18T04:50:43.969Z,22.97
2022-10-18T04:53:15.990Z,24.70
2022-10-18T04:55:45.179Z,22.73
2022-10-18T04:58:13.618Z,22.70
2022-10-18T05:00:42.236Z,21.90
2022-10-18T05:03:10.906Z,20.50
2022-10-18T05:05:57.156Z,19.60
2022-10-18T05:08:29.029Z,18.77
2022-10-18T05:10:57.309Z,17.60
2022-10-18T05:13:25.604Z,19.87
2022-10-18T05:15:53.754Z,18.70
2022-10-18T05:18:21.947Z,18.63
2022-10-18T05:20:51.412Z,17.77
2022-10-18T05:23:19.541Z,17.73
2022-10-18T05:25:47.973Z,16.73
2022-10-18T05:28:38.026Z,19.57
2022-10-18T05:31:06.975Z,19.57
2022-10-18T05:33:35.389Z,24.33
2022-10-18T05:36:05.340Z,23.90
2022-10-18T05:38:33.574Z,22.53
2022-10-18T05:41:05.407Z,24.50
2022-10-18T05:43:33.528Z,24.80
2022-10-18T05:46:01.871Z,27.37
2022-10-18T05:48:29.987Z,24.80
2022-10-18T05:50:59.383Z,24.37
2022-10-18T05:53:38.115Z,20.40
2022-10-18T05:56:07.659Z,21.10
2022-10-18T05:58:36.009Z,19.93
2022-10-18T06:01:06.380Z,21.17
2022-10-18T06:03:34.907Z,22.27
2022-10-18T06:06:05.225Z,20.17
2022-10-18T06:08:35.788Z,19.33
2022-10-18T06:11:07.822Z,16.67
2022-10-18T06:13:36.005Z,18.10
2022-10-18T06:16:04.161Z,17.30
2022-10-18T06:18:32.280Z,18.67
2022-10-18T06:21:00.727Z,22.00
2022-10-18T06:23:29.539Z,21.93
2022-10-18T06:26:01.227Z,23.30
2022-10-18T06:28:30.545Z,21.27
2022-10-18T06:30:59.142Z,23.47
2022-10-18T06:33:27.343Z,22.60
2022-10-18T06:35:57.044Z,27.63
2022-10-18T06:38:25.850Z,25.67
2022-10-18T06:40:54.007Z,21.80
2022-10-18T06:43:24.055Z,19.43
2022-10-18T06:45:52.897Z,20.10
2022-10-18T06:48:21.857Z,19.50
2022-10-18T06:50:54.837Z,18.10
2022-10-18T06:53:22.976Z,16.90
2022-10-18T06:55:51.277Z,17.20
2022-10-18T06:58:19.690Z,17.40
2022-10-18T07:00:49.240Z,17.07
2022-10-18T07:03:17.363Z,17.70
2022-10-18T07:05:45.482Z,16.80
2022-10-18T07:08:13.621Z,21.10
2022-10-18T07:10:41.835Z,19.27
2022-10-18T07:16:04.821Z,21.27
2022-10-18T07:18:34.429Z,21.90
2022-10-18T07:21:03.632Z,20.77
2022-10-18T07:23:33.545Z,26.07
2022-10-18T07:26:03.455Z,23.13
2022-10-18T07:28:32.023Z,22.73
2022-10-18T07:31:07.015Z,22.23
2022-10-18T07:33:35.843Z,21.20
2022-10-18T07:36:04.670Z,22.00
2022-10-18T07:38:33.093Z,22.90
2022-10-18T07:41:02.613Z,22.60
2022-10-18T07:43:31.069Z,21.13
2022-10-18T07:46:00.492Z,20.37
2022-10-18T07:48:30.630Z,19.00
2022-10-18T07:51:00.649Z,20.10
2022-10-18T07:53:29.084Z,19.90
2022-10-18T07:56:02.430Z,19.33
2022-10-18T07:58:33.446Z,19.60
2022-10-18T08:01:03.264Z,22.77
2022-10-18T08:03:33.139Z,25.90
2022-10-18T08:06:01.560Z,23.13
2022-10-18T08:08:30.601Z,24.50
2022-10-18T08:11:03.699Z,22.43
2022-10-18T08:13:31.947Z,19.43
2022-10-18T08:16:01.576Z,20.70
2022-10-18T08:18:30.514Z,21.60
2022-10-18T08:21:01.752Z,20.50
2022-10-18T08:23:30.233Z,21.53
2022-10-18T08:26:01.656Z,21.43
2022-10-18T08:28:30.049Z,20.57
2022-10-18T08:30:58.487Z,20.90
2022-10-18T08:33:26.614Z,18.97
2022-10-18T08:35:58.201Z,17.00
2022-10-18T08:38:31.115Z,18.00
2022-10-18T08:41:01.330Z,16.60
2022-10-18T08:46:12.421Z,12.63
2022-10-18T08:48:44.893Z,12.40
2022-10-18T08:51:23.271Z,12.83
2022-10-18T08:54:00.445Z,13.70
2022-10-18T08:56:28.653Z,12.13
2022-10-18T08:58:56.855Z,13.87
2022-10-18T09:01:32.662Z,12.10
2022-10-18T09:04:30.084Z,11.87
2022-10-18T09:07:16.524Z,12.50
2022-10-18T09:09:51.916Z,12.07
2022-10-18T09:12:43.696Z,12.33
2022-10-18T09:15:20.751Z,12.57
2022-10-18T09:18:03.520Z,12.60
2022-10-18T09:20:38.921Z,12.10
2022-10-18T09:23:19.422Z,13.10
2022-10-18T09:25:51.013Z,13.03
2022-10-18T09:28:33.203Z,13.93
2022-10-18T09:31:06.472Z,13.30
2022-10-18T09:33:47.548Z,13.33
2022-10-18T09:36:19.693Z,12.90
2022-10-18T09:38:51.310Z,13.10
2022-10-18T09:41:25.700Z,12.47
2022-10-18T09:43:59.437Z,12.43
2022-10-18T09:46:31.871Z,12.53
2022-10-18T09:49:04.641Z,11.80
2022-10-18T09:51:37.237Z,12.87
2022-10-18T09:54:18.778Z,12.20
2022-10-18T09:56:51.924Z,11.77
2022-10-18T09:59:39.322Z,12.00
2022-10-18T10:02:08.271Z,10.73
2022-10-18T10:04:36.415Z,8.40
2022-10-18T10:07:09.189Z,9.73
2022-10-18T10:09:42.408Z,10.30
2022-10-18T10:12:27.065Z,9.27
2022-10-18T10:14:55.235Z,9.23
2022-10-18T10:17:26.047Z,9.13
2022-10-18T10:19:59.932Z,10.43
2022-10-18T10:22:34.279Z,9.47
2022-10-18T10:25:03.075Z,8.57
2022-10-18T10:27:35.444Z,9.70
2022-10-18T10:30:07.351Z,9.10
2022-10-18T10:32:47.649Z,8.30
2022-10-18T10:35:52.630Z,8.50
2022-10-18T10:38:27.129Z,7.60
2022-10-18T10:40:56.276Z,6.67
2022-10-18T10:43:44.795Z,6.30
2022-10-18T10:46:15.345Z,5.70
2022-10-18T10:48:50.114Z,6.27
2022-10-18T10:51:29.292Z,6.10
2022-10-18T10:54:00.981Z,6.03
2022-10-18T10:56:31.461Z,7.07
2022-10-18T10:59:08.753Z,5.93
2022-10-18T11:01:37.387Z,7.37
2022-10-18T11:04:26.668Z,7.60
2022-10-18T11:07:01.797Z,7.20
2022-10-18T11:09:42.799Z,7.90
2022-10-18T11:12:22.995Z,8.70
2022-10-18T11:14:58.998Z,8.20
2022-10-18T11:17:33.599Z,8.33
2022-10-18T11:20:15.516Z,9.00
2022-10-18T11:22:48.073Z,7.90
2022-10-18T11:25:17.990Z,7.27
2022-10-18T11:27:54.216Z,8.17
2022-10-18T11:30:40.149Z,7.17
2022-10-18T11:33:29.505Z,6.40
2022-10-18T11:36:11.421Z,6.40
2022-10-18T11:38:47.665Z,6.30
2022-10-18T11:41:31.248Z,5.80
2022-10-18T11:44:03.396Z,8.87
2022-10-18T11:46:46.190Z,4.90
2022-10-18T11:49:30.811Z,5.30
2022-10-18T11:52:09.490Z,5.50
2022-10-18T11:54:53.022Z,5.57
2022-10-18T11:57:36.956Z,4.73
2022-10-18T12:00:17.870Z,6.10
2022-10-18T12:03:20.841Z,5.10
2022-10-18T12:05:52.008Z,5.67
2022-10-18T12:08:24.439Z,5.37
2022-10-18T12:11:05.414Z,5.23
2022-10-18T12:13:38.261Z,5.33
2022-10-18T12:16:09.049Z,5.10
2022-10-18T12:18:54.859Z,5.70
2022-10-18T12:21:26.041Z,5.70
2022-10-18T12:23:59.387Z,5.90
2022-10-18T12:26:29.359Z,6.20
2022-10-18T12:29:21.475Z,6.87
2022-10-18T12:31:54.102Z,5.90
2022-10-18T12:34:36.240Z,6.20
2022-10-18T12:37:24.739Z,5.67
2022-10-18T12:40:09.860Z,6.70
2022-10-18T12:42:43.782Z,6.50
2022-10-18T12:45:26.082Z,7.17
2022-10-18T12:47:55.096Z,7.30
2022-10-18T12:50:32.603Z,8.13
2022-10-18T12:53:17.936Z,7.30
2022-10-18T12:55:48.192Z,8.53
2022-10-18T12:58:28.679Z,7.30
2022-10-18T13:01:01.160Z,7.50
2022-10-18T13:03:39.317Z,6.80
2022-10-18T13:06:08.988Z,6.90
2022-10-18T13:08:41.952Z,5.90
2022-10-18T13:11:35.969Z,6.47
2022-10-18T13:14:38.752Z,6.90
2022-10-18T13:17:24.697Z,6.60
2022-10-18T13:20:24.698Z,5.77
2022-10-18T13:23:04.114Z,6.50
2022-10-18T13:25:42.030Z,6.20
2022-10-18T13:28:23.592Z,6.00
2022-10-18T13:30:57.736Z,6.20
2022-10-18T13:33:36.554Z,5.97
2022-10-18T13:36:07.089Z,5.63
2022-10-18T13:38:50.172Z,4.60
2022-10-18T13:41:20.856Z,4.63
2022-10-18T13:44:09.847Z,5.63
2022-10-18T13:47:20.545Z,6.10
2022-10-18T13:49:59.697Z,5.23
2022-10-18T13:52:40.496Z,5.83
2022-10-18T13:55:32.945Z,5.83
2022-10-18T13:58:12.173Z,6.40
2022-10-18T14:00:52.548Z,5.50
2022-10-18T14:06:27.808Z,6.93
2022-10-18T14:09:09.419Z,5.30
2022-10-18T14:11:51.877Z,6.33
2022-10-18T14:14:29.932Z,6.33
2022-10-18T14:17:04.721Z,6.80
2022-10-18T14:19:38.263Z,7.10
2022-10-18T14:22:14.797Z,7.03
2022-10-18T14:24:46.509Z,6.03
2022-10-18T14:27:19.986Z,7.67
2022-10-18T14:29:49.835Z,7.40
2022-10-18T14:32:29.292Z,7.40
2022-10-18T14:35:27.168Z,8.10
2022-10-18T14:37:48.790Z,8.00
2022-10-18T14:40:33.240Z,7.50
2022-10-18T14:43:12.172Z,7.27
2022-10-18T14:45:40.886Z,7.67
2022-10-18T14:48:15.952Z,9.20
2022-10-18T14:50:47.114Z,8.30
2022-10-18T14:53:18.677Z,9.00
2022-10-18T14:55:55.960Z,8.87
2022-10-18T14:58:25.747Z,8.63
2022-10-18T15:00:54.944Z,9.60
2022-10-18T15:03:24.786Z,9.30
2022-10-18T15:05:55.171Z,9.80
2022-10-18T15:08:29.126Z,10.63
2022-10-18T15:10:59.528Z,10.27
2022-10-18T15:13:31.138Z,10.00
2022-10-18T15:16:00.212Z,10.33
2022-10-18T15:21:22.205Z,10.50
2022-10-18T15:23:51.234Z,8.53
2022-10-18T15:26:27.554Z,12.40
2022-10-18T15:29:01.679Z,10.03
2022-10-18T15:31:36.374Z,10.33
2022-10-18T15:34:10.549Z,10.20
2022-10-18T15:36:39.293Z,10.73
2022-10-18T15:39:09.804Z,11.47
2022-10-18T15:41:40.856Z,10.60
2022-10-18T15:44:21.406Z,12.20
2022-10-18T15:46:52.885Z,11.17
2022-10-18T15:49:50.885Z,10.00
2022-10-18T15:52:38.128Z,10.50
2022-10-18T15:55:44.617Z,12.50
2022-10-18T15:58:16.587Z,10.90
2022-10-18T16:00:47.337Z,12.30
2022-10-18T16:03:17.054Z,11.53
2022-10-18T16:05:45.405Z,10.97
2022-10-18T16:08:21.652Z,13.20
2022-10-18T16:10:49.976Z,13.40
2022-10-18T16:13:18.228Z,13.07
2022-10-18T16:15:48.091Z,13.10
2022-10-18T16:18:18.727Z,12.50
2022-10-18T16:20:48.108Z,12.83
2022-10-18T16:23:19.269Z,12.50
2022-10-18T16:25:48.088Z,13.50
2022-10-18T16:28:19.259Z,13.27
2022-10-18T16:30:55.078Z,13.27
2022-10-18T16:33:24.190Z,13.73
2022-10-18T16:35:53.133Z,10.77
2022-10-18T16:38:34.843Z,12.27
2022-10-18T16:41:05.209Z,11.90
2022-10-18T16:43:34.654Z,10.27
2022-10-18T16:46:05.913Z,9.53
2022-10-18T16:48:34.596Z,11.40
2022-10-18T16:51:03.046Z,12.50
2022-10-18T16:53:31.920Z,12.87
2022-10-18T16:56:01.762Z,14.43
2022-10-18T16:58:31.378Z,12.70
2022-10-18T17:01:01.897Z,13.33
2022-10-18T17:03:33.681Z,12.63
2022-10-18T17:06:01.853Z,13.03
2022-10-18T17:08:30.405Z,13.00
2022-10-18T17:11:01.622Z,11.70
2022-10-18T17:13:29.766Z,12.33
2022-10-18T17:15:59.282Z,14.30
2022-10-18T17:18:27.588Z,13.40
2022-10-18T17:20:59.290Z,11.90
2022-10-18T17:23:27.585Z,10.80
2022-10-18T17:26:06.769Z,10.60
2022-10-18T17:28:43.634Z,11.37
2022-10-18T17:31:11.948Z,9.20
2022-10-18T17:33:40.385Z,11.50
2022-10-18T17:36:10.217Z,10.60
2022-10-18T17:38:38.450Z,10.57
2022-10-18T17:41:08.440Z,13.17
2022-10-18T17:43:37.682Z,12.70
2022-10-18T17:46:06.238Z,12.93
2022-10-18T17:48:34.767Z,13.37
2022-10-18T17:51:07.636Z,13.10
2022-10-18T17:53:37.331Z,14.57
2022-10-18T17:56:07.347Z,14.37
2022-10-18T17:58:35.836Z,15.40
2022-10-18T18:01:11.892Z,12.00
2022-10-18T18:03:40.111Z,12.77
2022-10-18T18:06:19.648Z,12.83
2022-10-18T18:08:50.451Z,12.53
2022-10-18T18:11:19.277Z,11.20
2022-10-18T18:13:47.460Z,9.57
2022-10-18T18:16:17.697Z,9.40
2022-10-18T18:18:46.516Z,10.53
2022-10-18T18:21:15.083Z,12.40
2022-10-18T18:23:43.303Z,14.53
2022-10-18T18:26:13.309Z,14.00
2022-10-18T18:28:42.229Z,14.87
2022-10-18T18:31:12.422Z,12.70
2022-10-18T18:33:40.617Z,12.20
2022-10-18T18:36:09.240Z,11.40
2022-10-18T18:38:39.688Z,11.67
2022-10-18T18:41:10.541Z,10.17
2022-10-18T18:43:41.962Z,10.43
2022-10-18T18:46:12.600Z,9.57
2022-10-18T18:48:41.806Z,10.07
2022-10-18T18:51:12.492Z,9.37
2022-10-18T18:53:41.707Z,8.30
2022-10-18T18:56:13.951Z,9.73
2022-10-18T18:58:44.908Z,8.93
2022-10-18T19:01:17.197Z,9.23
2022-10-18T19:03:46.389Z,9.33
2022-10-18T19:06:17.735Z,7.93
2022-10-18T19:08:47.395Z,7.83
2022-10-18T19:11:18.058Z,9.17
2022-10-18T19:13:48.773Z,10.47
2022-10-18T19:16:26.586Z,11.83
2022-10-18T19:18:57.280Z,12.97
2022-10-18T19:21:26.976Z,14.53
2022-10-18T19:23:56.143Z,14.60
2022-10-18T19:26:28.484Z,16.27
2022-10-18T19:29:01.600Z,15.80
2022-10-18T19:31:30.053Z,13.27
2022-10-18T19:33:59.733Z,14.90
2022-10-18T19:36:29.522Z,14.63
2022-10-18T19:38:57.771Z,14.63
2022-10-18T19:43:54.327Z,13.73
2022-10-18T19:46:24.212Z,11.23
2022-10-18T19:48:54.083Z,10.00
2022-10-18T19:51:26.863Z,11.10
2022-10-18T19:53:57.645Z,11.50
2022-10-18T19:56:27.943Z,11.53
2022-10-18T19:58:57.428Z,10.77
2022-10-18T20:01:28.937Z,9.10
2022-10-18T20:03:57.413Z,8.00
2022-10-18T20:06:25.553Z,6.77
2022-10-18T20:08:54.117Z,8.33
2022-10-18T20:11:24.305Z,7.97
2022-10-18T20:13:52.599Z,7.87
2022-10-18T20:16:27.957Z,10.43
2022-10-18T20:18:59.756Z,11.00
2022-10-18T20:21:29.761Z,10.07
2022-10-18T20:23:58.627Z,9.27
2022-10-18T20:26:26.906Z,11.00
2022-10-18T20:28:58.103Z,10.20
2022-10-18T20:31:28.380Z,12.70
2022-10-18T20:33:59.775Z,12.20
2022-10-18T20:36:29.369Z,11.03
2022-10-18T20:38:57.790Z,12.27
2022-10-18T20:41:27.924Z,12.10
2022-10-18T20:43:57.512Z,10.77
2022-10-18T20:46:26.793Z,12.93
2022-10-18T20:48:55.376Z,11.90
2022-10-18T20:51:25.083Z,11.70
2022-10-18T20:53:54.276Z,10.63
2022-10-18T20:56:25.209Z,10.77
2022-10-18T20:58:55.643Z,10.17
2022-10-18T21:01:25.439Z,9.13
2022-10-18T21:03:55.400Z,9.70
2022-10-18T21:06:27.804Z,11.90
2022-10-18T21:08:58.119Z,11.70
2022-10-18T21:11:27.824Z,12.20
2022-10-18T21:13:58.940Z,12.30
2022-10-18T21:16:27.360Z,12.70
2022-10-18T21:18:55.864Z,11.00
2022-10-18T21:21:25.662Z,13.20
2022-10-18T21:23:54.621Z,13.43
2022-10-18T21:26:24.535Z,11.80
2022-10-18T21:28:54.210Z,12.67
2022-10-18T21:31:24.365Z,10.50
2022-10-18T21:33:54.813Z,10.90
2022-10-18T21:36:24.168Z,11.80
2022-10-18T21:38:53.997Z,13.50
2022-10-18T21:41:23.425Z,13.87
2022-10-18T21:43:54.128Z,13.80
2022-10-18T21:46:24.192Z,12.73
2022-10-18T21:48:53.807Z,14.27
2022-10-18T21:51:24.089Z,13.10
2022-10-18T21:53:55.083Z,12.93
2022-10-18T21:56:25.009Z,10.80
2022-10-18T21:58:53.452Z,10.57
2022-10-18T22:01:24.716Z,10.30
2022-10-18T22:03:55.260Z,9.90
2022-10-18T22:06:24.597Z,11.73
2022-10-18T22:08:56.389Z,10.27
2022-10-18T22:11:27.048Z,9.33
2022-10-18T22:13:55.235Z,9.40
2022-10-18T22:16:23.614Z,10.00
2022-10-18T22:18:52.540Z,11.00
2022-10-18T22:21:21.661Z,11.27
2022-10-18T22:23:51.573Z,13.27
2022-10-18T22:26:22.983Z,14.03
2022-10-18T22:28:55.572Z,11.93
2022-10-18T22:31:26.131Z,11.37
2022-10-18T22:33:55.500Z,11.67
2022-10-18T22:36:24.738Z,11.47
2022-10-18T22:38:53.377Z,10.50
2022-10-18T22:41:23.178Z,11.40
2022-10-18T22:43:52.040Z,9.17
2022-10-18T22:46:21.030Z,9.97
2022-10-18T22:48:49.503Z,12.40
2022-10-18T22:51:17.980Z,9.03
2022-10-18T22:53:46.896Z,9.43
2022-10-18T22:56:17.948Z,7.90
2022-10-18T22:58:48.030Z,8.47
2022-10-18T23:01:17.899Z,9.33
2022-10-18T23:03:46.424Z,7.27
2022-10-18T23:06:21.303Z,7.63
2022-10-18T23:08:50.021Z,8.40
2022-10-18T23:11:18.869Z,7.00
2022-10-18T23:13:48.495Z,7.47
2022-10-18T23:16:17.917Z,7.53
2022-10-18T23:18:50.656Z,7.07
2022-10-18T23:21:19.473Z,7.47
2022-10-18T23:23:47.971Z,7.63
2022-10-18T23:26:17.862Z,7.80
2022-10-18T23:28:48.985Z,6.73
2022-10-18T23:31:19.323Z,7.43
2022-10-18T23:33:49.397Z,7.70
2022-10-18T23:36:18.181Z,8.50
2022-10-18T23:38:46.777Z,6.50
2022-10-18T23:41:16.392Z,6.03
2022-10-18T23:43:45.691Z,6.20
2022-10-18T23:46:16.408Z,5.43
2022-10-18T23:48:45.259Z,5.27
2022-10-18T23:51:13.836Z,7.50
2022-10-18T23:53:42.431Z,5.97
2022-10-18T23:56:12.293Z,5.60
2022-10-18T23:58:40.502Z,5.00
